createdAt,value
2017-12-27T00:03:28.471Z,0
2017-12-27T00:04:12.386Z,0
2017-12-27T00:04:40.398Z,0
2017-12-27T00:05:08.829Z,0
2017-12-27T00:06:07.468Z,0
2017-12-27T00:06:35.900Z,0
2017-12-27T00:07:05.124Z,0
2017-12-27T00:09:01.413Z,0
2017-12-27T00:09:31.016Z,0
2017-12-27T00:09:59.598Z,0
2017-12-27T00:10:28.196Z,0
2017-12-27T00:11:02.491Z,0
2017-12-27T00:11:37.180Z,0
2017-12-27T00:12:05.618Z,0
2017-12-27T00:13:52.661Z,0
2017-12-27T00:14:21.097Z,0
2017-12-27T00:14:49.749Z,0
2017-12-27T00:15:19.418Z,0
2017-12-27T00:15:47.973Z,0
2017-12-27T00:16:17.964Z,0
2017-12-27T00:16:46.382Z,0
2017-12-27T00:17:15.196Z,0
2017-12-27T00:17:43.864Z,0
2017-12-27T00:18:12.318Z,0
2017-12-27T00:18:40.605Z,0
2017-12-27T00:19:09.097Z,0
2017-12-27T00:19:39.181Z,0
2017-12-27T00:20:23.717Z,0
2017-12-27T00:22:04.115Z,0
2017-12-27T00:22:32.522Z,0
2017-12-27T00:23:06.125Z,0
2017-12-27T00:24:18.052Z,0
2017-12-27T00:24:46.191Z,0
2017-12-27T00:25:14.779Z,0
2017-12-27T00:25:43.227Z,0
2017-12-27T00:26:11.250Z,0
2017-12-27T00:27:09.531Z,0
2017-12-27T00:28:06.591Z,0
2017-12-27T00:28:49.955Z,0
2017-12-27T00:29:18.981Z,0
2017-12-27T00:30:16.051Z,0
2017-12-27T00:31:04.423Z,0
2017-12-27T00:32:02.785Z,0
2017-12-27T00:32:30.704Z,0
2017-12-27T00:32:59.154Z,0
2017-12-27T00:34:11.164Z,0
2017-12-27T00:34:40.665Z,0
2017-12-27T00:35:09.424Z,0
2017-12-27T00:35:38.833Z,0
2017-12-27T00:36:08.134Z,0
2017-12-27T00:36:37.779Z,0
2017-12-27T00:37:06.662Z,0
2017-12-27T00:37:35.184Z,0
2017-12-27T00:40:41.856Z,0
2017-12-27T00:41:10.668Z,0
2017-12-27T00:42:35.778Z,0
2017-12-27T00:43:04.208Z,0
2017-12-27T00:43:43.351Z,0
2017-12-27T00:44:37.810Z,0
2017-12-27T00:45:06.269Z,0
2017-12-27T00:47:15.331Z,0
2017-12-27T00:47:58.889Z,0
2017-12-27T00:48:41.438Z,0
2017-12-27T00:49:10.768Z,0
2017-12-27T00:49:39.489Z,0
2017-12-27T00:50:36.964Z,0
2017-12-27T00:51:05.414Z,0
2017-12-27T00:51:39.035Z,0
2017-12-27T00:52:10.094Z,0
2017-12-27T00:52:38.940Z,0
2017-12-27T00:53:08.000Z,0
2017-12-27T00:53:37.203Z,0
2017-12-27T00:54:30.913Z,0
2017-12-27T00:55:11.896Z,0
2017-12-27T00:55:40.307Z,0
2017-12-27T00:56:08.326Z,0
2017-12-27T00:56:37.561Z,0
2017-12-27T00:57:05.573Z,0
2017-12-27T00:57:33.594Z,0
2017-12-27T00:58:03.037Z,0
2017-12-27T00:58:32.654Z,0
2017-12-27T00:59:01.844Z,0
2017-12-27T00:59:29.895Z,0
2017-12-27T01:01:38.903Z,0
2017-12-27T01:02:08.310Z,0
2017-12-27T01:02:37.542Z,0
2017-12-27T01:03:20.787Z,0
2017-12-27T01:03:49.211Z,0
2017-12-27T01:04:17.741Z,0
2017-12-27T01:04:46.494Z,0
2017-12-27T01:05:20.372Z,0
2017-12-27T01:05:49.608Z,0
2017-12-27T01:06:18.072Z,0
2017-12-27T01:06:47.106Z,0
2017-12-27T01:07:15.948Z,0
2017-12-27T01:07:43.963Z,0
2017-12-27T01:08:28.244Z,0
2017-12-27T01:08:56.692Z,0
2017-12-27T01:09:25.096Z,0
2017-12-27T01:10:36.872Z,0
2017-12-27T01:11:48.461Z,0
2017-12-27T01:13:58.834Z,0
2017-12-27T01:16:37.234Z,0
2017-12-27T01:17:06.109Z,0
2017-12-27T01:17:35.558Z,0
2017-12-27T01:19:02.249Z,0
2017-12-27T01:19:30.764Z,0
2017-12-27T01:19:59.648Z,0
2017-12-27T01:20:44.276Z,0
2017-12-27T01:22:23.780Z,0
2017-12-27T01:24:47.815Z,0
2017-12-27T01:26:27.432Z,0
2017-12-27T01:26:55.447Z,0
2017-12-27T01:27:25.517Z,0
2017-12-27T01:28:51.842Z,0
2017-12-27T01:29:35.803Z,0
2017-12-27T01:30:04.927Z,0
2017-12-27T01:31:17.321Z,0
2017-12-27T01:31:45.581Z,0
2017-12-27T01:32:13.590Z,0
2017-12-27T01:32:41.607Z,0
2017-12-27T01:34:22.441Z,0
2017-12-27T01:34:51.885Z,0
2017-12-27T01:35:20.326Z,0
2017-12-27T01:36:03.379Z,0
2017-12-27T01:36:32.535Z,0
2017-12-27T01:37:32.516Z,0
2017-12-27T01:38:00.525Z,0
2017-12-27T01:38:58.536Z,0
2017-12-27T01:39:27.773Z,0
2017-12-27T01:39:56.985Z,0
2017-12-27T01:40:25.578Z,0
2017-12-27T01:40:54.339Z,0
2017-12-27T01:41:22.784Z,0
2017-12-27T01:43:32.152Z,0
2017-12-27T01:44:01.183Z,0
2017-12-27T01:45:27.274Z,0
2017-12-27T01:45:56.134Z,0
2017-12-27T01:46:25.214Z,0
2017-12-27T01:47:08.522Z,0
2017-12-27T01:50:16.308Z,0
2017-12-27T01:50:44.337Z,0
2017-12-27T01:51:42.188Z,0
2017-12-27T01:53:09.115Z,0
2017-12-27T01:53:37.906Z,0
2017-12-27T01:54:07.291Z,0
2017-12-27T01:54:46.447Z,0
2017-12-27T01:55:15.291Z,0
2017-12-27T01:55:43.703Z,0
2017-12-27T01:56:16.999Z,0
2017-12-27T01:56:45.017Z,0
2017-12-27T01:57:18.409Z,0
2017-12-27T01:57:47.267Z,0
2017-12-27T01:59:30.724Z,0
2017-12-27T01:59:59.160Z,0
2017-12-27T02:00:27.063Z,0
2017-12-27T02:00:55.570Z,0
2017-12-27T02:01:23.492Z,0
2017-12-27T02:01:53.080Z,0
2017-12-27T02:02:21.930Z,0
2017-12-27T02:02:50.776Z,0
2017-12-27T02:03:19.157Z,0
2017-12-27T02:04:31.534Z,0
2017-12-27T02:05:58.387Z,0
2017-12-27T02:07:54.184Z,0
2017-12-27T02:08:35.457Z,0
2017-12-27T02:09:04.855Z,0
2017-12-27T02:09:33.202Z,0
2017-12-27T02:10:01.852Z,0
2017-12-27T02:10:30.287Z,0
2017-12-27T02:10:59.519Z,0
2017-12-27T02:12:54.518Z,0
2017-12-27T02:13:23.581Z,0
2017-12-27T02:13:52.775Z,0
2017-12-27T02:14:21.590Z,0
2017-12-27T02:16:16.665Z,0
2017-12-27T02:16:44.585Z,0
2017-12-27T02:17:16.190Z,0
2017-12-27T02:17:45.993Z,0
2017-12-27T02:18:14.870Z,0
2017-12-27T02:18:47.040Z,0
2017-12-27T02:19:59.429Z,0
2017-12-27T02:20:28.256Z,0
2017-12-27T02:20:56.689Z,0
2017-12-27T02:21:25.102Z,0
2017-12-27T02:21:53.951Z,0
2017-12-27T02:22:23.706Z,0
2017-12-27T02:22:51.827Z,0
2017-12-27T02:23:37.197Z,0
2017-12-27T02:25:31.259Z,0
2017-12-27T02:26:00.100Z,0
2017-12-27T02:26:29.744Z,0
2017-12-27T02:27:28.288Z,0
2017-12-27T02:28:39.882Z,0
2017-12-27T02:29:09.112Z,0
2017-12-27T02:30:15.040Z,0
2017-12-27T02:32:11.233Z,0
2017-12-27T02:34:36.169Z,0
2017-12-27T02:35:19.905Z,0
2017-12-27T02:35:48.354Z,0
2017-12-27T02:37:43.279Z,0
2017-12-27T02:38:12.128Z,0
2017-12-27T02:39:38.665Z,0
2017-12-27T02:40:36.522Z,0
2017-12-27T02:41:29.362Z,0
2017-12-27T02:42:13.913Z,0
2017-12-27T02:43:11.389Z,0
2017-12-27T02:43:39.825Z,0
2017-12-27T02:44:08.413Z,0
2017-12-27T02:46:07.195Z,0
2017-12-27T02:46:36.214Z,0
2017-12-27T02:49:26.496Z,0
2017-12-27T02:51:12.263Z,0
2017-12-27T02:52:50.800Z,0
2017-12-27T02:55:17.251Z,0
2017-12-27T02:56:14.332Z,0
2017-12-27T02:56:57.305Z,0
2017-12-27T02:57:27.696Z,0
2017-12-27T02:59:09.685Z,0
2017-12-27T03:01:49.768Z,0
2017-12-27T03:03:29.612Z,0
2017-12-27T03:04:41.210Z,0
2017-12-27T03:05:23.990Z,0
2017-12-27T03:05:53.991Z,0
2017-12-27T03:07:20.271Z,0
2017-12-27T03:07:49.257Z,0
2017-12-27T03:10:13.271Z,0
2017-12-27T03:12:22.769Z,0
2017-12-27T03:12:51.201Z,0
2017-12-27T03:13:19.935Z,0
2017-12-27T03:15:59.741Z,0
2017-12-27T03:18:26.753Z,0
2017-12-27T03:20:08.753Z,0
2017-12-27T03:20:37.014Z,0
2017-12-27T03:21:06.391Z,0
2017-12-27T03:21:35.120Z,0
2017-12-27T03:23:30.086Z,0
2017-12-27T03:23:58.110Z,0
2017-12-27T03:26:09.724Z,0
2017-12-27T03:28:05.063Z,0
2017-12-27T03:29:16.655Z,0
2017-12-27T03:29:45.189Z,0
2017-12-27T03:31:26.015Z,0
2017-12-27T03:31:54.346Z,0
2017-12-27T03:33:25.882Z,0
2017-12-27T03:33:53.902Z,0
2017-12-27T03:34:38.191Z,0
2017-12-27T03:35:22.418Z,0
2017-12-27T03:35:50.993Z,0
2017-12-27T03:36:19.443Z,0
2017-12-27T03:37:02.773Z,0
2017-12-27T03:37:32.175Z,0
2017-12-27T03:38:00.498Z,0
2017-12-27T03:38:29.570Z,0
2017-12-27T03:38:58.502Z,0
2017-12-27T03:39:26.809Z,0
2017-12-27T03:39:55.578Z,0
2017-12-27T03:40:25.921Z,0
2017-12-27T03:40:55.124Z,0
2017-12-27T03:41:23.237Z,0
2017-12-27T03:42:06.316Z,0
2017-12-27T03:42:35.172Z,0
2017-12-27T03:43:03.198Z,0
2017-12-27T03:43:31.212Z,0
2017-12-27T03:44:00.089Z,0
2017-12-27T03:44:43.409Z,0
2017-12-27T03:45:13.673Z,0
2017-12-27T03:45:42.004Z,0
2017-12-27T03:46:10.039Z,0
2017-12-27T03:46:38.862Z,0
2017-12-27T03:47:06.864Z,0
2017-12-27T03:47:37.647Z,0
2017-12-27T03:48:06.213Z,0
2017-12-27T03:48:34.667Z,0
2017-12-27T03:49:03.399Z,0
2017-12-27T03:49:32.130Z,0
2017-12-27T03:50:01.072Z,0
2017-12-27T03:50:37.509Z,0
2017-12-27T03:52:04.736Z,0
2017-12-27T03:53:46.371Z,0
2017-12-27T03:54:15.826Z,0
2017-12-27T03:54:45.119Z,0
2017-12-27T03:55:14.873Z,0
2017-12-27T03:56:26.470Z,0
2017-12-27T03:56:55.057Z,0
2017-12-27T03:57:22.912Z,0
2017-12-27T03:57:51.336Z,0
2017-12-27T03:58:19.769Z,0
2017-12-27T03:58:48.780Z,0
2017-12-27T03:59:17.501Z,0
2017-12-27T04:00:00.044Z,0
2017-12-27T04:00:28.899Z,0
2017-12-27T04:00:58.082Z,0
2017-12-27T04:01:41.324Z,0
2017-12-27T04:02:58.027Z,0
2017-12-27T04:03:26.847Z,0
2017-12-27T04:03:54.877Z,0
2017-12-27T04:04:23.687Z,0
2017-12-27T04:04:53.674Z,0
2017-12-27T04:06:49.027Z,0
2017-12-27T04:07:47.515Z,0
2017-12-27T04:08:15.956Z,0
2017-12-27T04:09:48.099Z,0
2017-12-27T04:10:16.118Z,0
2017-12-27T04:10:45.055Z,0
2017-12-27T04:11:13.383Z,0
2017-12-27T04:11:41.816Z,0
2017-12-27T04:12:14.973Z,0
2017-12-27T04:12:44.322Z,0
2017-12-27T04:13:14.054Z,0
2017-12-27T04:13:42.397Z,0
2017-12-27T04:15:08.890Z,0
2017-12-27T04:15:37.565Z,0
2017-12-27T04:16:06.376Z,0
2017-12-27T04:17:23.450Z,0
2017-12-27T04:18:35.173Z,0
2017-12-27T04:19:19.347Z,0
2017-12-27T04:20:03.519Z,0
2017-12-27T04:20:31.754Z,0
2017-12-27T04:21:00.626Z,0
2017-12-27T04:21:28.649Z,0
2017-12-27T04:21:57.102Z,0
2017-12-27T04:22:25.520Z,0
2017-12-27T04:23:00.240Z,0
2017-12-27T04:23:28.256Z,0
2017-12-27T04:23:59.667Z,0
2017-12-27T04:24:42.992Z,0
2017-12-27T04:25:48.636Z,0
2017-12-27T04:26:31.679Z,0
2017-12-27T04:27:01.039Z,0
2017-12-27T04:27:30.326Z,0
2017-12-27T04:27:58.753Z,0
2017-12-27T04:28:26.768Z,0
2017-12-27T04:28:56.359Z,0
2017-12-27T04:29:25.361Z,0
2017-12-27T04:31:06.635Z,0
2017-12-27T04:31:34.618Z,0
2017-12-27T04:32:02.650Z,0
2017-12-27T04:32:30.666Z,0
2017-12-27T04:32:58.689Z,0
2017-12-27T04:33:42.011Z,0
2017-12-27T04:34:10.568Z,0
2017-12-27T04:34:38.806Z,0
2017-12-27T04:35:07.553Z,0
2017-12-27T04:35:36.066Z,0
2017-12-27T04:36:04.315Z,0
2017-12-27T04:36:32.792Z,0
2017-12-27T04:37:02.854Z,0
2017-12-27T04:37:32.162Z,0
2017-12-27T04:38:00.881Z,0
2017-12-27T04:38:29.307Z,0
2017-12-27T04:38:57.736Z,0
2017-12-27T04:39:26.175Z,0
2017-12-27T04:39:54.213Z,0
2017-12-27T04:40:24.279Z,0
2017-12-27T04:40:53.856Z,0
2017-12-27T04:41:37.641Z,0
2017-12-27T04:42:06.173Z,0
2017-12-27T04:42:35.496Z,0
2017-12-27T04:43:03.926Z,0
2017-12-27T04:43:33.358Z,0
2017-12-27T04:44:58.842Z,0
2017-12-27T04:45:27.294Z,0
2017-12-27T04:45:55.331Z,0
2017-12-27T04:47:21.632Z,0
2017-12-27T04:47:49.871Z,0
2017-12-27T04:48:33.197Z,0
2017-12-27T04:49:47.018Z,0
2017-12-27T04:50:15.432Z,0
2017-12-27T04:53:07.424Z,0
2017-12-27T04:53:35.859Z,0
2017-12-27T04:54:04.301Z,0
2017-12-27T04:55:02.159Z,0
2017-12-27T04:55:32.772Z,0
2017-12-27T04:56:02.245Z,0
2017-12-27T04:57:14.183Z,0
2017-12-27T04:57:42.338Z,0
2017-12-27T04:59:22.386Z,0
2017-12-27T05:00:20.249Z,0
2017-12-27T05:02:00.767Z,0
2017-12-27T05:02:31.012Z,0
2017-12-27T05:03:00.085Z,0
2017-12-27T05:03:28.914Z,0
2017-12-27T05:03:57.946Z,0
2017-12-27T05:05:54.922Z,0
2017-12-27T05:06:25.776Z,0
2017-12-27T05:06:59.169Z,0
2017-12-27T05:07:32.853Z,0
2017-12-27T05:08:00.865Z,0
2017-12-27T05:08:30.069Z,0
2017-12-27T05:09:00.977Z,0
2017-12-27T05:09:29.846Z,0
2017-12-27T05:09:58.647Z,0
2017-12-27T05:10:26.663Z,0
2017-12-27T05:12:21.572Z,0
2017-12-27T05:12:51.435Z,0
2017-12-27T05:13:19.785Z,0
2017-12-27T05:13:52.153Z,0
2017-12-27T05:14:20.073Z,0
2017-12-27T05:15:04.350Z,0
2017-12-27T05:15:33.123Z,0
2017-12-27T05:16:16.458Z,0
2017-12-27T05:16:44.878Z,0
2017-12-27T05:18:54.653Z,0
2017-12-27T05:21:24.675Z,0
2017-12-27T05:23:56.099Z,0
2017-12-27T05:24:53.684Z,0
2017-12-27T05:25:37.086Z,0
2017-12-27T05:27:18.196Z,0
2017-12-27T05:27:47.835Z,0
2017-12-27T05:28:16.615Z,0
2017-12-27T05:28:44.609Z,0
2017-12-27T05:29:14.684Z,0
2017-12-27T05:30:12.974Z,0
2017-12-27T05:30:40.986Z,0
2017-12-27T05:31:08.991Z,0
2017-12-27T05:31:38.442Z,0
2017-12-27T05:32:36.817Z,0
2017-12-27T05:33:33.770Z,0
2017-12-27T05:34:03.361Z,0
2017-12-27T05:34:31.814Z,0
2017-12-27T05:34:59.838Z,0
2017-12-27T05:35:28.292Z,0
2017-12-27T05:35:57.533Z,0
2017-12-27T05:36:25.885Z,0
2017-12-27T05:37:09.538Z,0
2017-12-27T05:37:37.556Z,0
2017-12-27T05:38:06.020Z,0
2017-12-27T05:38:34.899Z,0
2017-12-27T05:39:40.759Z,0
2017-12-27T05:40:09.341Z,0
2017-12-27T05:40:37.365Z,0
2017-12-27T05:41:06.828Z,0
2017-12-27T05:41:49.779Z,0
2017-12-27T05:42:19.865Z,0
2017-12-27T05:42:48.431Z,0
2017-12-27T05:43:17.817Z,0
2017-12-27T05:43:47.058Z,0
2017-12-27T05:44:31.182Z,0
2017-12-27T05:44:59.428Z,0
2017-12-27T05:45:42.904Z,0
2017-12-27T05:46:12.129Z,0
2017-12-27T05:46:40.927Z,0
2017-12-27T05:47:10.454Z,0
2017-12-27T05:47:38.812Z,0
2017-12-27T05:48:06.827Z,0
2017-12-27T05:48:36.001Z,0
2017-12-27T05:52:54.215Z,0
2017-12-27T05:53:23.228Z,0
2017-12-27T05:53:52.774Z,0
2017-12-27T05:55:34.943Z,0
2017-12-27T05:56:03.707Z,0
2017-12-27T05:56:32.033Z,0
2017-12-27T05:57:00.495Z,0
2017-12-27T05:57:28.517Z,0
2017-12-27T05:58:11.489Z,0
2017-12-27T05:58:40.163Z,0
2017-12-27T05:59:24.287Z,0
2017-12-27T05:59:53.229Z,0
2017-12-27T06:00:22.640Z,0
2017-12-27T06:00:50.859Z,0
2017-12-27T06:01:19.820Z,0
2017-12-27T06:01:48.762Z,0
2017-12-27T06:02:28.053Z,0
2017-12-27T06:04:37.617Z,0
2017-12-27T06:05:20.858Z,0
2017-12-27T06:05:49.316Z,0
2017-12-27T06:06:37.970Z,0
2017-12-27T06:07:06.407Z,0
2017-12-27T06:07:34.427Z,0
2017-12-27T06:08:02.849Z,0
2017-12-27T06:08:31.614Z,0
2017-12-27T06:09:28.889Z,0
2017-12-27T06:10:16.589Z,0
2017-12-27T06:10:44.587Z,0
2017-12-27T06:11:12.605Z,0
2017-12-27T06:11:55.150Z,0
2017-12-27T06:12:24.414Z,0
2017-12-27T06:13:07.980Z,0
2017-12-27T06:13:44.726Z,0
2017-12-27T06:14:42.305Z,0
2017-12-27T06:15:10.224Z,0
2017-12-27T06:16:36.080Z,0
2017-12-27T06:17:04.109Z,0
2017-12-27T06:17:33.055Z,0
2017-12-27T06:18:00.960Z,0
2017-12-27T06:18:30.428Z,0
2017-12-27T06:18:58.949Z,0
2017-12-27T06:19:37.554Z,0
2017-12-27T06:21:32.827Z,0
2017-12-27T06:22:01.344Z,0
2017-12-27T06:22:29.762Z,0
2017-12-27T06:22:59.326Z,0
2017-12-27T06:25:09.313Z,0
2017-12-27T06:25:38.067Z,0
2017-12-27T06:26:06.114Z,0
2017-12-27T06:26:34.530Z,0
2017-12-27T06:27:02.531Z,0
2017-12-27T06:28:04.671Z,0
2017-12-27T06:28:33.627Z,0
2017-12-27T06:29:02.035Z,0
2017-12-27T06:30:13.797Z,0
2017-12-27T06:31:11.277Z,0
2017-12-27T06:31:40.851Z,0
2017-12-27T06:32:09.828Z,0
2017-12-27T06:32:38.382Z,0
2017-12-27T06:34:48.657Z,0
2017-12-27T06:35:32.928Z,0
2017-12-27T06:36:56.095Z,0
2017-12-27T06:37:24.846Z,0
2017-12-27T06:39:04.467Z,0
2017-12-27T06:39:32.507Z,0
2017-12-27T06:40:00.519Z,0
2017-12-27T06:41:06.449Z,0
2017-12-27T06:42:18.317Z,0
2017-12-27T06:42:46.773Z,0
2017-12-27T06:43:15.319Z,0
2017-12-27T06:43:43.871Z,0
2017-12-27T06:44:11.869Z,0
2017-12-27T06:44:39.880Z,0
2017-12-27T06:45:37.734Z,0
2017-12-27T06:46:06.903Z,0
2017-12-27T06:47:33.623Z,0
2017-12-27T06:48:17.702Z,0
2017-12-27T06:48:46.275Z,0
2017-12-27T06:49:14.297Z,0
2017-12-27T06:49:43.062Z,0
2017-12-27T06:52:26.462Z,0
2017-12-27T06:53:38.689Z,0
2017-12-27T06:54:36.466Z,0
2017-12-27T06:55:04.491Z,0
2017-12-27T06:55:33.437Z,0
2017-12-27T06:56:01.871Z,0
2017-12-27T06:56:30.303Z,0
2017-12-27T06:56:58.306Z,0
2017-12-27T06:57:35.897Z,0
2017-12-27T06:59:59.408Z,0
2017-12-27T07:00:28.244Z,0
2017-12-27T07:00:56.252Z,0
2017-12-27T07:01:27.880Z,0
2017-12-27T07:01:56.306Z,0
2017-12-27T07:03:53.219Z,0
2017-12-27T07:04:22.952Z,0
2017-12-27T07:04:51.110Z,0
2017-12-27T07:06:02.472Z,0
2017-12-27T07:06:31.842Z,0
2017-12-27T07:07:01.104Z,0
2017-12-27T07:07:58.458Z,0
2017-12-27T07:08:55.940Z,0
2017-12-27T07:09:24.359Z,0
2017-12-27T07:10:49.797Z,0
2017-12-27T07:11:44.651Z,0
2017-12-27T07:12:13.806Z,0
2017-12-27T07:12:44.679Z,0
2017-12-27T07:17:05.145Z,0
2017-12-27T07:17:34.556Z,0
2017-12-27T07:18:03.522Z,0
2017-12-27T07:18:33.554Z,0
2017-12-27T07:19:03.904Z,0
2017-12-27T07:19:47.780Z,0
2017-12-27T07:20:17.080Z,0
2017-12-27T07:20:45.793Z,0
2017-12-27T07:21:15.516Z,0
2017-12-27T07:22:56.761Z,0
2017-12-27T07:23:25.566Z,0
2017-12-27T07:24:08.940Z,0
2017-12-27T07:24:38.210Z,0
2017-12-27T07:25:21.455Z,0
2017-12-27T07:25:51.685Z,0
2017-12-27T07:26:34.207Z,0
2017-12-27T07:27:03.522Z,0
2017-12-27T07:27:31.440Z,0
2017-12-27T07:28:00.187Z,0
2017-12-27T07:28:28.188Z,0
2017-12-27T07:28:56.204Z,0
2017-12-27T07:29:24.324Z,0
2017-12-27T07:29:52.772Z,0
2017-12-27T07:30:21.631Z,0
2017-12-27T07:30:49.647Z,0
2017-12-27T07:31:18.113Z,0
2017-12-27T07:32:00.987Z,0
2017-12-27T07:32:28.996Z,0
2017-12-27T07:33:11.536Z,0
2017-12-27T07:33:40.500Z,0
2017-12-27T07:34:09.487Z,0
2017-12-27T07:34:38.380Z,0
2017-12-27T07:37:50.795Z,0
2017-12-27T07:38:18.818Z,0
2017-12-27T07:41:10.256Z,0
2017-12-27T07:42:21.848Z,0
2017-12-27T07:43:04.747Z,0
2017-12-27T07:43:49.223Z,0
2017-12-27T07:44:17.673Z,0
2017-12-27T07:44:46.033Z,0
2017-12-27T07:45:14.453Z,0
2017-12-27T07:45:43.252Z,0
2017-12-27T07:46:26.202Z,0
2017-12-27T07:47:09.332Z,0
2017-12-27T07:47:39.775Z,0
2017-12-27T07:48:07.763Z,0
2017-12-27T07:49:02.928Z,0
2017-12-27T07:49:46.397Z,0
2017-12-27T07:50:31.290Z,0
2017-12-27T07:51:14.593Z,0
2017-12-27T07:51:42.605Z,0
2017-12-27T07:52:11.851Z,0
2017-12-27T07:52:39.874Z,0
2017-12-27T07:54:18.098Z,0
2017-12-27T07:55:02.108Z,0
2017-12-27T07:55:31.234Z,0
2017-12-27T07:56:14.129Z,4
2017-12-27T07:57:11.724Z,4
2017-12-27T07:57:40.086Z,4
2017-12-27T07:59:20.364Z,4
2017-12-27T08:00:19.815Z,4
2017-12-27T08:01:06.136Z,4
2017-12-27T08:04:15.110Z,8
2017-12-27T08:04:58.155Z,8
2017-12-27T08:05:26.916Z,12
2017-12-27T08:05:55.766Z,12
2017-12-27T08:07:27.794Z,16
2017-12-27T08:08:11.926Z,20
2017-12-27T08:08:41.061Z,20
2017-12-27T08:09:24.516Z,24
2017-12-27T08:09:52.562Z,24
2017-12-27T08:10:21.971Z,32
2017-12-27T08:10:52.169Z,32
2017-12-27T08:11:51.177Z,36
2017-12-27T08:13:04.604Z,48
2017-12-27T08:13:47.580Z,56
2017-12-27T08:14:32.580Z,64
2017-12-27T08:16:44.753Z,96
2017-12-27T08:17:29.618Z,104
2017-12-27T08:17:59.221Z,112
2017-12-27T08:18:27.979Z,116
2017-12-27T08:18:57.289Z,124
2017-12-27T08:19:41.270Z,144
2017-12-27T08:20:38.776Z,164
2017-12-27T08:21:37.317Z,184
2017-12-27T08:22:08.008Z,196
2017-12-27T08:22:50.919Z,208
2017-12-27T08:23:34.215Z,224
2017-12-27T08:24:45.833Z,264
2017-12-27T08:26:14.529Z,304
2017-12-27T08:26:43.492Z,316
2017-12-27T08:27:12.015Z,328
2017-12-27T08:27:40.734Z,344
2017-12-27T08:29:36.728Z,408
2017-12-27T08:30:20.326Z,428
2017-12-27T08:30:49.559Z,440
2017-12-27T08:31:18.297Z,452
2017-12-27T08:31:47.244Z,464
2017-12-27T08:32:15.570Z,476
2017-12-27T08:33:13.960Z,516
2017-12-27T08:33:41.873Z,540
2017-12-27T08:34:24.831Z,576
2017-12-27T08:35:37.205Z,628
2017-12-27T08:36:06.881Z,652
2017-12-27T08:37:05.134Z,700
2017-12-27T08:37:49.461Z,736
2017-12-27T08:38:18.394Z,760
2017-12-27T08:38:46.841Z,788
2017-12-27T08:39:15.149Z,820
2017-12-27T08:40:58.027Z,992
2017-12-27T08:41:27.645Z,1036
2017-12-27T08:42:12.549Z,1092
2017-12-27T08:42:41.336Z,1120
2017-12-27T08:43:40.198Z,1156
2017-12-27T08:46:34.049Z,1124
2017-12-27T08:47:04.688Z,1124
2017-12-27T08:48:01.748Z,1144
2017-12-27T08:48:45.520Z,1164
2017-12-27T08:49:43.816Z,1208
2017-12-27T08:50:16.285Z,1232
2017-12-27T08:51:13.883Z,1292
2017-12-27T08:52:00.171Z,1332
2017-12-27T08:52:29.347Z,1360
2017-12-27T08:52:57.263Z,1384
2017-12-27T08:53:55.530Z,1420
2017-12-27T08:54:25.007Z,1440
2017-12-27T08:55:36.588Z,1488
2017-12-27T08:56:19.121Z,1524
2017-12-27T08:56:47.727Z,1548
2017-12-27T08:57:59.322Z,1616
2017-12-27T08:58:27.348Z,1644
2017-12-27T09:00:52.874Z,1760
2017-12-27T09:01:21.603Z,1780
2017-12-27T09:02:19.158Z,1812
2017-12-27T09:03:20.050Z,1824
2017-12-27T09:03:50.343Z,1824
2017-12-27T09:04:48.187Z,1816
2017-12-27T09:05:22.406Z,1804
2017-12-27T09:07:17.796Z,1760
2017-12-27T09:08:02.522Z,1764
2017-12-27T09:08:32.540Z,1776
2017-12-27T09:09:02.572Z,1792
2017-12-27T09:12:15.317Z,1900
2017-12-27T09:12:58.313Z,1916
2017-12-27T09:13:26.751Z,1928
2017-12-27T09:13:55.654Z,1944
2017-12-27T09:14:38.433Z,1984
2017-12-27T09:15:12.925Z,2016
2017-12-27T09:15:41.908Z,2064
2017-12-27T09:16:10.042Z,2104
2017-12-27T09:16:39.036Z,2148
2017-12-27T09:17:36.137Z,2220
2017-12-27T09:18:04.559Z,2252
2017-12-27T09:19:02.428Z,2320
2017-12-27T09:19:45.616Z,2368
2017-12-27T09:20:28.561Z,2424
2017-12-27T09:20:57.137Z,2464
2017-12-27T09:22:12.520Z,2584
2017-12-27T09:23:10.107Z,2672
2017-12-27T09:23:53.499Z,2736
2017-12-27T09:24:35.956Z,2788
2017-12-27T09:26:30.406Z,2932
2017-12-27T09:27:14.162Z,2976
2017-12-27T09:27:43.073Z,3000
2017-12-27T09:28:22.099Z,3032
2017-12-27T09:29:05.076Z,3052
2017-12-27T09:29:47.592Z,3012
2017-12-27T09:31:43.081Z,2808
2017-12-27T09:32:12.099Z,2780
2017-12-27T09:32:40.146Z,2768
2017-12-27T09:33:08.771Z,2780
2017-12-27T09:33:37.990Z,2816
2017-12-27T09:34:07.464Z,2868
2017-12-27T09:34:36.263Z,2928
2017-12-27T09:36:31.623Z,3240
2017-12-27T09:38:54.393Z,3652
2017-12-27T09:39:22.841Z,3752
2017-12-27T09:39:51.275Z,3856
2017-12-27T09:42:16.977Z,4160
2017-12-27T09:43:14.481Z,4204
2017-12-27T09:44:11.740Z,4280
2017-12-27T09:44:56.651Z,4340
2017-12-27T09:45:40.689Z,4424
2017-12-27T09:46:08.725Z,4480
2017-12-27T09:47:35.801Z,4744
2017-12-27T09:48:04.664Z,4852
2017-12-27T09:49:03.522Z,5100
2017-12-27T09:50:44.153Z,5564
2017-12-27T09:51:12.588Z,5688
2017-12-27T09:54:06.896Z,5912
2017-12-27T09:54:51.062Z,5828
2017-12-27T09:55:34.748Z,5756
2017-12-27T09:56:18.471Z,5740
2017-12-27T09:57:15.572Z,5812
2017-12-27T09:57:43.561Z,5896
2017-12-27T09:58:26.518Z,6104
2017-12-27T09:59:23.602Z,6572
2017-12-27T10:00:21.078Z,7244
2017-12-27T10:01:18.924Z,7920
2017-12-27T10:03:59.475Z,8876
2017-12-27T10:04:42.826Z,8932
2017-12-27T10:05:11.253Z,8960
2017-12-27T10:05:39.296Z,8996
2017-12-27T10:06:07.727Z,9060
2017-12-27T10:06:35.744Z,9164
2017-12-27T10:07:19.491Z,9352
2017-12-27T10:08:19.402Z,9708
2017-12-27T10:09:02.961Z,10028
2017-12-27T10:09:45.882Z,10344
2017-12-27T10:10:15.341Z,10548
2017-12-27T10:10:43.365Z,10756
2017-12-27T10:11:12.666Z,10952
2017-12-27T10:12:39.609Z,11328
2017-12-27T10:16:01.381Z,11444
2017-12-27T10:16:29.589Z,11404
2017-12-27T10:19:24.059Z,11012
2017-12-27T10:20:08.305Z,10932
2017-12-27T10:20:42.254Z,10872
2017-12-27T10:21:11.058Z,10824
2017-12-27T10:22:38.484Z,10740
2017-12-27T10:23:07.525Z,10764
2017-12-27T10:24:21.931Z,11000
2017-12-27T10:24:49.939Z,11192
2017-12-27T10:25:25.484Z,11384
2017-12-27T10:25:53.918Z,11600
2017-12-27T10:26:23.510Z,11772
2017-12-27T10:27:07.061Z,11992
2017-12-27T10:27:49.514Z,12180
2017-12-27T10:28:32.845Z,12356
2017-12-27T10:29:02.490Z,12504
2017-12-27T10:30:43.316Z,13048
2017-12-27T10:31:14.578Z,13200
2017-12-27T10:31:59.781Z,13384
2017-12-27T10:32:57.841Z,13548
2017-12-27T10:33:29.111Z,13532
2017-12-27T10:33:58.327Z,13464
2017-12-27T10:34:26.239Z,13380
2017-12-27T10:34:54.268Z,13252
2017-12-27T10:35:37.610Z,13072
2017-12-27T10:36:20.358Z,12972
2017-12-27T10:36:49.190Z,12932
2017-12-27T10:37:18.158Z,12904
2017-12-27T10:38:44.523Z,12992
2017-12-27T10:40:09.604Z,13120
2017-12-27T10:40:52.177Z,13112
2017-12-27T10:41:49.268Z,13128
2017-12-27T10:42:48.393Z,13044
2017-12-27T10:44:43.241Z,13056
2017-12-27T10:46:23.857Z,13968
2017-12-27T10:47:35.463Z,15324
2017-12-27T10:48:18.514Z,15996
2017-12-27T10:49:01.466Z,16304
2017-12-27T10:49:45.368Z,15828
2017-12-27T10:50:14.524Z,15364
2017-12-27T10:50:42.340Z,15000
2017-12-27T10:53:22.049Z,14232
2017-12-27T10:53:50.093Z,14612
2017-12-27T10:54:18.104Z,16052
2017-12-27T10:54:46.112Z,17824
2017-12-27T10:55:14.556Z,21312
2017-12-27T10:55:42.593Z,20224
2017-12-27T10:56:11.534Z,20800
2017-12-27T10:56:41.083Z,20704
2017-12-27T10:57:09.941Z,16636
2017-12-27T10:57:39.726Z,15488
2017-12-27T10:58:08.567Z,15324
2017-12-27T10:58:37.008Z,16208
2017-12-27T10:59:05.042Z,17824
2017-12-27T10:59:33.083Z,19392
2017-12-27T11:00:02.052Z,22016
2017-12-27T11:00:29.988Z,25280
2017-12-27T11:00:58.890Z,24128
2017-12-27T11:01:26.902Z,23808
2017-12-27T11:01:56.513Z,24864
2017-12-27T11:02:25.073Z,27744
2017-12-27T11:02:53.445Z,25312
2017-12-27T11:03:23.117Z,28736
2017-12-27T11:03:51.265Z,28704
2017-12-27T11:04:20.336Z,26624
2017-12-27T11:04:49.158Z,28480
2017-12-27T11:05:17.207Z,32768
2017-12-27T11:06:00.591Z,27936
2017-12-27T11:06:29.452Z,28736
2017-12-27T11:06:57.454Z,34592
2017-12-27T11:07:25.891Z,30624
2017-12-27T11:07:54.333Z,27552
2017-12-27T11:08:23.160Z,25728
2017-12-27T11:08:51.184Z,23936
2017-12-27T11:09:20.151Z,23392
2017-12-27T11:09:49.526Z,22816
2017-12-27T11:10:17.861Z,22272
2017-12-27T11:10:46.301Z,21920
2017-12-27T11:11:14.724Z,21760
2017-12-27T11:11:42.755Z,21760
2017-12-27T11:12:10.762Z,21152
2017-12-27T11:12:38.801Z,19904
2017-12-27T11:13:21.340Z,18560
2017-12-27T11:13:49.877Z,18240
2017-12-27T11:14:18.213Z,20160
2017-12-27T11:14:46.235Z,21856
2017-12-27T11:15:14.659Z,21024
2017-12-27T11:16:26.461Z,16592
2017-12-27T11:16:55.402Z,16612
2017-12-27T11:17:24.272Z,17248
2017-12-27T11:18:07.155Z,19872